Time;durP1;ratioP1;P1;durP2;ratioP2;P2;SDS_P1;SDS_P2;PMS_P1;PMS_P2;Temp;Humidity;BMP_temperature;BMP_pressure;BME280_temperature;BME280_humidity;BME280_pressure;Samples;Min_cycle;Max_cycle;Signal;HPM_P1;HPM_P2
2021/11/15 00:00:50;;;;;;;253.50;85.15;;;;;;;5.50;71.74;99545.75;5088045;28;20495;-73
2021/11/15 00:03:17;;;;;;;187.85;66.25;;;;;;;5.48;72.37;99547.88;5069734;28;20032;-73
2021/11/15 00:05:43;;;;;;;201.13;69.10;;;;;;;5.48;71.83;99545.16;5088454;28;20043;-74
2021/11/15 00:08:09;;;;;;;183.82;66.47;;;;;;;5.45;72.40;99542.09;5088425;28;20024;-73
2021/11/15 00:10:36;;;;;;;195.50;67.70;;;;;;;5.44;72.32;99548.59;5088494;28;20040;-74
2021/11/15 00:13:01;;;;;;;215.88;74.82;;;;;;;5.45;72.50;99547.53;5088071;28;20020;-74
2021/11/15 00:15:29;;;;;;;193.75;66.28;;;;;;;5.49;72.67;99544.09;5090190;28;20443;-73
2021/11/15 00:17:56;;;;;;;156.07;56.58;;;;;;;5.50;72.26;99545.75;5092522;28;20104;-74
2021/11/15 00:20:22;;;;;;;165.85;61.30;;;;;;;5.52;72.62;99550.94;5092609;28;20696;-74
2021/11/15 00:22:48;;;;;;;173.88;62.42;;;;;;;5.54;72.75;99554.25;5092389;28;20027;-74
2021/11/15 00:25:15;;;;;;;166.07;59.08;;;;;;;5.50;72.16;99556.66;5093919;28;20020;-74
2021/11/15 00:27:41;;;;;;;156.35;56.25;;;;;;;5.51;72.73;99552.00;5093120;28;20036;-73
2021/11/15 00:30:09;;;;;;;169.88;60.92;;;;;;;5.53;72.75;99557.25;5074848;28;20113;-74
2021/11/15 00:32:35;;;;;;;160.10;59.28;;;;;;;5.56;72.88;99567.66;5075242;28;20043;-73
2021/11/15 00:35:01;;;;;;;170.57;60.25;;;;;;;5.54;72.87;99561.63;5092604;28;20028;-73
2021/11/15 00:37:26;;;;;;;171.38;60.35;;;;;;;5.54;72.96;99567.06;5091968;28;20036;-74
2021/11/15 00:39:52;;;;;;;170.73;59.33;;;;;;;5.52;72.53;99567.28;5073867;28;20030;-75
2021/11/15 00:42:17;;;;;;;180.85;60.97;;;;;;;5.50;72.63;99562.09;5089574;28;20026;-74
2021/11/15 00:44:43;;;;;;;158.73;54.38;;;;;;;5.51;73.14;99566.47;5074022;28;20480;-74
2021/11/15 00:47:09;;;;;;;167.95;58.00;;;;;;;5.50;72.42;99570.25;5092165;28;20101;-75
2021/11/15 00:49:34;;;;;;;168.60;56.90;;;;;;;5.47;73.14;99573.44;5091089;28;20436;-75
2021/11/15 00:52:00;;;;;;;176.95;60.92;;;;;;;5.47;72.60;99564.47;5092190;28;20115;-75
2021/11/15 00:54:26;;;;;;;163.27;56.35;;;;;;;5.47;72.82;99562.56;5092252;28;20114;-74
2021/11/15 00:56:51;;;;;;;149.95;54.95;;;;;;;5.45;73.07;99561.16;5092228;28;20101;-75
2021/11/15 00:59:16;;;;;;;128.18;48.15;;;;;;;5.44;73.05;99570.38;5092360;28;20594;-74
2021/11/15 01:01:43;;;;;;;114.20;45.67;;;;;;;5.42;73.40;99565.16;5091665;28;20117;-74
2021/11/15 01:04:10;;;;;;;144.13;52.10;;;;;;;5.41;73.15;99568.94;5092006;28;20387;-74
2021/11/15 01:06:36;;;;;;;139.85;49.50;;;;;;;5.41;73.30;99562.69;5091864;28;20360;-74
2021/11/15 01:09:02;;;;;;;123.70;47.30;;;;;;;5.44;73.46;99567.66;5092061;28;20487;-73
2021/11/15 01:11:28;;;;;;;121.15;45.85;;;;;;;5.45;73.00;99578.28;5091958;28;20051;-73
2021/11/15 01:13:53;;;;;;;145.35;50.45;;;;;;;5.47;73.02;99573.44;5071437;28;20124;-74
2021/11/15 01:16:19;;;;;;;136.75;51.65;;;;;;;5.47;72.94;99567.19;5073392;28;20346;-74
2021/11/15 01:18:44;;;;;;;106.10;43.67;;;;;;;5.49;73.48;99578.66;5073642;28;20024;-74
2021/11/15 01:21:12;;;;;;;123.35;46.78;;;;;;;5.46;73.58;99571.78;5089044;28;20043;-74
2021/11/15 01:23:38;;;;;;;124.53;48.28;;;;;;;5.48;73.46;99574.28;5091419;28;20082;-74
2021/11/15 01:26:06;;;;;;;122.20;46.30;;;;;;;5.46;72.96;99576.41;5090739;28;20016;-74
2021/11/15 01:28:33;;;;;;;108.82;43.80;;;;;;;5.44;73.26;99576.63;5090625;28;20074;-73
2021/11/15 01:30:59;;;;;;;125.47;48.92;;;;;;;5.46;73.23;99576.41;5074068;28;20480;-73
2021/11/15 01:33:25;;;;;;;116.43;46.13;;;;;;;5.46;73.33;99581.84;5093612;28;20045;-74
2021/11/15 01:35:50;;;;;;;112.95;44.17;;;;;;;5.45;73.35;99582.91;5093255;28;20016;-73
2021/11/15 01:38:16;;;;;;;120.30;46.60;;;;;;;5.43;73.53;99587.75;5093480;28;20472;-73
2021/11/15 01:40:41;;;;;;;129.73;47.30;;;;;;;5.40;73.28;99580.06;5092738;28;20029;-73
2021/11/15 01:43:07;;;;;;;131.95;48.30;;;;;;;5.36;73.64;99583.25;5092155;28;20023;-74
2021/11/15 01:45:35;;;;;;;118.05;44.53;;;;;;;5.34;73.15;99588.09;5073418;28;20028;-74
2021/11/15 01:48:02;;;;;;;105.55;40.72;;;;;;;5.35;73.40;99592.47;5091995;28;20012;-73
2021/11/15 01:50:30;;;;;;;104.20;41.83;;;;;;;5.34;73.28;99588.09;5092054;28;20039;-72
2021/11/15 01:52:56;;;;;;;96.28;39.20;;;;;;;5.33;73.88;99591.03;5090968;28;20052;-73
2021/11/15 01:55:23;;;;;;;114.13;43.05;;;;;;;5.31;73.59;99587.72;5091919;28;20038;-73
2021/11/15 01:57:50;;;;;;;110.00;41.97;;;;;;;5.27;73.60;99589.28;5091705;28;20024;-73
2021/11/15 02:00:21;;;;;;;109.72;42.30;;;;;;;5.23;73.43;99591.59;5073359;28;20089;-72
2021/11/15 02:02:47;;;;;;;109.43;42.53;;;;;;;5.21;73.63;99582.84;5091974;28;20024;-73
2021/11/15 02:05:13;;;;;;;115.45;43.83;;;;;;;5.19;73.17;99590.41;5091675;28;20042;-73
2021/11/15 02:07:38;;;;;;;111.75;41.42;;;;;;;5.18;73.87;99588.75;5092787;28;20072;-72
2021/11/15 02:10:07;;;;;;;102.38;41.03;;;;;;;5.19;73.56;99587.69;5092549;28;20556;-73
2021/11/15 02:12:33;;;;;;;129.82;47.22;;;;;;;5.19;73.76;99587.69;5074573;28;20437;-73
2021/11/15 02:14:59;;;;;;;95.22;39.92;;;;;;;5.19;73.88;99590.41;5092856;28;20016;-74
2021/11/15 02:17:24;;;;;;;135.35;46.58;;;;;;;5.21;73.73;99600.00;5091661;28;20023;-73
2021/11/15 02:19:51;;;;;;;91.80;37.10;;;;;;;5.21;74.19;99596.44;5092493;28;20535;-73
2021/11/15 02:22:16;;;;;;;97.85;39.03;;;;;;;5.24;74.18;99595.19;5092477;28;20031;-74
2021/11/15 02:24:43;;;;;;;101.05;39.30;;;;;;;5.26;74.23;99598.50;5092534;28;20024;-74
2021/11/15 02:27:09;;;;;;;121.88;42.67;;;;;;;5.31;73.98;99598.59;5092625;28;20051;-74
2021/11/15 02:29:38;;;;;;;90.80;36.95;;;;;;;5.30;74.25;99597.78;5092268;28;20749;-74
2021/11/15 02:32:04;;;;;;;95.20;36.45;;;;;;;5.30;73.76;99596.97;5092025;28;20043;-73
2021/11/15 02:34:29;;;;;;;85.65;36.13;;;;;;;5.26;74.11;99599.31;5092042;28;20496;-74
2021/11/15 02:36:55;;;;;;;111.43;43.75;;;;;;;5.26;74.08;99596.59;5073749;28;20046;-74
2021/11/15 02:39:20;;;;;;;103.68;39.92;;;;;;;5.25;73.95;99597.66;5091666;28;20024;-73
2021/11/15 02:41:46;;;;;;;104.90;40.65;;;;;;;5.28;74.14;99605.34;5092226;28;20031;-73
2021/11/15 02:44:11;;;;;;;110.45;42.97;;;;;;;5.26;73.96;99593.88;5092431;28;20046;-74
2021/11/15 02:46:37;;;;;;;112.30;43.13;;;;;;;5.21;73.90;99602.75;5072702;28;20039;-74
2021/11/15 02:49:03;;;;;;;109.13;40.83;;;;;;;5.20;74.30;99603.78;5088229;28;20483;-73
2021/11/15 02:51:29;;;;;;;105.28;41.15;;;;;;;5.19;73.98;99602.13;5091759;28;20032;-73
2021/11/15 02:53:54;;;;;;;106.47;41.03;;;;;;;5.22;74.40;99598.97;5091820;28;20031;-73
2021/11/15 02:56:20;;;;;;;107.60;41.60;;;;;;;5.23;74.44;99602.50;5091898;28;20748;-75
2021/11/15 02:58:45;;;;;;;96.80;38.42;;;;;;;5.21;74.05;99601.88;5091854;28;20035;-74
2021/11/15 03:01:17;;;;;;;95.57;38.20;;;;;;;5.19;74.34;99604.00;5091479;28;20032;-72
2021/11/15 03:03:42;;;;;;;96.47;39.65;;;;;;;5.16;74.66;99597.16;5090832;28;20407;-73
2021/11/15 03:06:08;;;;;;;92.53;37.40;;;;;;;5.16;74.62;99601.75;5091337;28;20035;-73
2021/11/15 03:08:33;;;;;;;107.72;43.00;;;;;;;5.13;74.60;99607.66;5091490;28;20465;-73
2021/11/15 03:11:01;;;;;;;108.35;40.25;;;;;;;5.10;74.88;99614.41;5091653;28;20028;-72
2021/11/15 03:13:29;;;;;;;92.55;37.35;;;;;;;5.10;74.72;99613.56;5091491;28;20044;-73
2021/11/15 03:15:57;;;;;;;100.10;40.63;;;;;;;5.13;74.87;99613.09;5091007;28;20016;-74
2021/11/15 03:18:25;;;;;;;92.97;39.13;;;;;;;5.12;74.56;99609.56;5090560;28;20039;-74
2021/11/15 03:20:56;;;;;;;96.78;39.03;;;;;;;5.15;74.77;99602.81;5091453;28;20031;-73
2021/11/15 03:23:31;;;;;;;122.18;43.83;;;;;;;5.13;75.01;99607.66;5089350;28;20098;-72
2021/11/15 03:25:58;;;;;;;104.90;41.33;;;;;;;5.13;74.50;99613.09;5090887;28;20034;-73
2021/11/15 03:28:27;;;;;;;102.35;40.08;;;;;;;5.16;74.82;99607.19;5090308;28;20024;-74
2021/11/15 03:30:59;;;;;;;135.73;51.47;;;;;;;5.17;74.78;99606.97;5086751;28;20050;-73
2021/11/15 03:33:27;;;;;;;96.55;37.80;;;;;;;5.18;75.02;99619.50;5090458;28;20032;-74
2021/11/15 03:35:53;;;;;;;120.30;44.40;;;;;;;5.18;74.58;99613.22;5091070;28;20027;-75
2021/11/15 03:38:19;;;;;;;114.32;42.50;;;;;;;5.20;74.76;99606.50;5091367;28;20043;-74
2021/11/15 03:40:45;;;;;;;91.80;37.38;;;;;;;5.20;75.30;99603.78;5072482;28;20032;-73
2021/11/15 03:43:11;;;;;;;91.80;37.75;;;;;;;5.24;74.79;99609.59;5091362;28;20230;-73
2021/11/15 03:45:37;;;;;;;99.88;37.33;;;;;;;5.25;74.66;99596.84;5091168;28;20099;-73
2021/11/15 03:48:05;;;;;;;134.45;46.97;;;;;;;5.22;75.08;99601.69;5090669;28;20028;-73
2021/11/15 03:50:30;;;;;;;109.72;41.42;;;;;;;5.24;75.05;99598.72;5090186;28;20028;-74
2021/11/15 03:52:57;;;;;;;101.30;38.40;;;;;;;5.22;74.67;99596.22;5088138;28;20043;-74
2021/11/15 03:55:24;;;;;;;102.25;38.78;;;;;;;5.23;75.02;99599.78;5089130;28;20026;-73
2021/11/15 03:57:49;;;;;;;111.85;39.88;;;;;;;5.22;75.10;99598.09;5089712;28;20478;-74
2021/11/15 04:00:22;;;;;;;103.85;38.78;;;;;;;5.21;74.82;99591.84;5090297;28;20107;-73
2021/11/15 04:02:52;;;;;;;101.60;38.28;;;;;;;5.24;75.38;99596.00;5090732;28;20024;-74
2021/11/15 04:05:28;;;;;;;96.50;37.28;;;;;;;5.24;75.25;99581.56;5067177;28;20027;-74
2021/11/15 04:07:55;;;;;;;104.55;39.72;;;;;;;5.22;75.04;99590.78;5090833;28;20082;-74
2021/11/15 04:10:27;;;;;;;97.05;37.22;;;;;;;5.25;74.87;99596.84;5090421;28;20073;-74
2021/11/15 04:12:54;;;;;;;95.50;37.90;;;;;;;5.24;75.24;99590.56;5090772;28;20059;-74
2021/11/15 04:15:20;;;;;;;101.60;38.42;;;;;;;5.20;75.13;99590.19;5090578;28;20062;-74
2021/11/15 04:17:47;;;;;;;81.18;33.30;;;;;;;5.21;75.20;99586.41;5090497;28;20052;-73
2021/11/15 04:20:16;;;;;;;77.32;32.58;;;;;;;5.24;75.01;99593.28;5090369;28;20028;-73
2021/11/15 04:22:42;;;;;;;80.63;32.58;;;;;;;5.24;74.94;99596.00;5088551;28;20123;-73
2021/11/15 04:25:08;;;;;;;86.28;33.53;;;;;;;5.27;75.46;99592.81;5090519;28;20641;-74
2021/11/15 04:27:35;;;;;;;109.63;38.67;;;;;;;5.30;75.26;99597.78;5071987;28;20028;-74
2021/11/15 04:30:02;;;;;;;81.28;31.77;;;;;;;5.27;75.19;99598.25;5090301;28;20044;-74
2021/11/15 04:32:28;;;;;;;95.97;34.50;;;;;;;5.26;74.69;99587.59;5090299;28;20043;-73
2021/11/15 04:34:53;;;;;;;124.95;41.28;;;;;;;5.22;74.78;99587.22;5072093;28;20093;-73
2021/11/15 04:37:19;;;;;;;227.30;59.83;;;;;;;5.24;74.84;99587.00;5090598;28;20569;-74
2021/11/15 04:39:44;;;;;;;184.82;47.78;;;;;;;5.24;74.79;99587.00;5090664;28;20032;-73
2021/11/15 04:42:10;;;;;;;228.25;57.67;;;;;;;5.25;75.03;99585.94;5090369;28;20024;-74
2021/11/15 04:44:36;;;;;;;253.90;64.28;;;;;;;5.25;75.08;99594.13;5090463;28;20424;-73
2021/11/15 04:47:01;;;;;;;196.20;52.15;;;;;;;5.24;75.23;99593.28;5087668;28;20384;-73
2021/11/15 04:49:27;;;;;;;201.43;51.28;;;;;;;5.22;75.10;99588.06;5071722;28;20404;-74
2021/11/15 04:51:53;;;;;;;171.00;45.45;;;;;;;5.21;75.12;99591.00;5089942;28;20028;-74
2021/11/15 04:54:19;;;;;;;147.27;41.15;;;;;;;5.22;75.08;99588.06;5090497;28;20013;-73
2021/11/15 04:56:45;;;;;;;157.60;43.75;;;;;;;5.20;74.79;99586.63;5090045;28;20061;-74
2021/11/15 04:59:10;;;;;;;114.47;34.78;;;;;;;5.16;75.10;99586.28;5072039;28;20046;-74
2021/11/15 05:01:37;;;;;;;101.07;32.33;;;;;;;5.11;75.32;99583.44;5073720;28;20073;-74
2021/11/15 05:04:02;;;;;;;119.30;36.05;;;;;;;5.11;75.04;99586.16;5093619;28;20027;-74
2021/11/15 05:06:28;;;;;;;120.68;37.78;;;;;;;5.12;75.08;99576.94;5094045;28;20025;-73
2021/11/15 05:08:54;;;;;;;79.60;28.17;;;;;;;5.11;75.45;99579.88;5093974;28;20016;-73
2021/11/15 05:11:19;;;;;;;86.03;31.17;;;;;;;5.10;74.87;99586.38;5093495;28;20539;-73
2021/11/15 05:13:45;;;;;;;85.00;30.25;;;;;;;5.12;75.15;99581.53;5093736;28;20024;-74
2021/11/15 05:16:11;;;;;;;63.35;26.90;;;;;;;5.15;75.59;99583.78;5093110;28;20020;-74
2021/11/15 05:18:36;;;;;;;65.00;27.17;;;;;;;5.11;75.45;99580.72;5075330;28;20456;-74
2021/11/15 05:21:02;;;;;;;63.88;27.00;;;;;;;5.06;75.80;99584.13;5093292;28;20036;-71
2021/11/15 05:23:28;;;;;;;59.22;25.67;;;;;;;5.00;75.27;99570.63;5094752;28;20141;-72
2021/11/15 05:25:54;;;;;;;52.28;23.27;;;;;;;4.98;75.25;99576.31;5094743;28;20495;-72
2021/11/15 05:28:20;;;;;;;58.95;25.13;;;;;;;4.97;75.22;99584.69;5075911;28;20384;-73
2021/11/15 05:30:46;;;;;;;57.13;25.23;;;;;;;4.98;75.31;99583.63;5094802;28;20038;-72
2021/11/15 05:33:11;;;;;;;57.03;25.27;;;;;;;4.99;75.92;99588.00;5094149;28;20366;-73
2021/11/15 05:35:37;;;;;;;58.92;27.20;;;;;;;4.97;75.39;99588.25;5094670;28;20036;-73
2021/11/15 05:38:02;;;;;;;65.93;27.65;;;;;;;5.01;75.88;99597.59;5094638;28;20028;-73
2021/11/15 05:40:28;;;;;;;62.00;26.95;;;;;;;5.04;75.85;99585.41;5094516;28;20040;-74
2021/11/15 05:42:55;;;;;;;65.25;28.60;;;;;;;5.09;75.43;99595.63;5076181;28;20097;-74
2021/11/15 05:45:23;;;;;;;61.90;26.25;;;;;;;5.11;75.51;99593.47;5080235;28;20475;-74
2021/11/15 05:47:48;;;;;;;65.03;27.83;;;;;;;5.12;75.94;99595.97;5094146;28;20031;-75
2021/11/15 05:50:16;;;;;;;59.63;25.67;;;;;;;5.14;75.84;99598.44;5094335;28;20107;-74
2021/11/15 05:52:43;;;;;;;61.40;27.85;;;;;;;5.14;75.27;99602.00;5075698;28;20506;-74
2021/11/15 05:55:13;;;;;;;62.85;26.83;;;;;;;5.11;75.76;99604.34;5073952;28;20039;-74
2021/11/15 05:57:38;;;;;;;63.63;27.88;;;;;;;5.07;75.78;99612.16;5093067;28;20696;-74
2021/11/15 06:00:07;;;;;;;73.28;30.48;;;;;;;5.06;75.69;99608.59;5093478;28;20046;-74
2021/11/15 06:02:32;;;;;;;55.65;25.13;;;;;;;5.09;75.80;99623.63;5071540;28;20038;-73
2021/11/15 06:04:58;;;;;;;55.00;25.17;;;;;;;5.09;75.36;99617.38;5093737;28;20392;-73
2021/11/15 06:07:23;;;;;;;58.15;24.58;;;;;;;5.10;75.54;99619.00;5093892;28;20525;-75
2021/11/15 06:09:48;;;;;;;64.05;27.50;;;;;;;5.09;75.54;99623.63;5093949;28;20548;-73
2021/11/15 06:12:14;;;;;;;61.92;26.05;;;;;;;5.13;75.75;99627.53;5093146;28;20032;-74
2021/11/15 06:14:39;;;;;;;64.43;27.13;;;;;;;5.14;75.56;99621.03;5093761;28;20021;-73
2021/11/15 06:17:05;;;;;;;57.90;25.13;;;;;;;5.12;76.05;99623.16;5092945;28;20039;-73
2021/11/15 06:19:30;;;;;;;64.13;28.35;;;;;;;5.09;76.02;99622.81;5093917;28;20460;-75
2021/11/15 06:21:56;;;;;;;56.90;25.75;;;;;;;5.09;75.50;99633.69;5094035;28;20468;-74
2021/11/15 06:24:21;;;;;;;55.53;25.17;;;;;;;5.09;75.69;99634.50;5093731;28;20460;-74
2021/11/15 06:26:47;;;;;;;58.33;26.40;;;;;;;5.04;75.91;99640.63;5093611;28;20486;-74
2021/11/15 06:29:13;;;;;;;54.17;25.30;;;;;;;4.97;76.30;99637.19;5093746;28;20225;-74
2021/11/15 06:31:38;;;;;;;54.80;24.42;;;;;;;4.88;76.20;99642.13;5092786;28;20412;-73
2021/11/15 06:34:03;;;;;;;55.67;26.77;;;;;;;4.82;76.48;99644.91;5093360;28;20031;-74
2021/11/15 06:36:29;;;;;;;54.70;24.90;;;;;;;4.82;76.31;99644.91;5093237;28;20111;-74
2021/11/15 06:38:57;;;;;;;60.45;25.63;;;;;;;4.83;76.29;99644.69;5093347;28;20081;-74
2021/11/15 06:41:23;;;;;;;61.67;27.10;;;;;;;4.83;76.57;99641.97;5092963;28;20046;-74
2021/11/15 06:43:49;;;;;;;51.78;22.95;;;;;;;4.82;76.79;99640.31;5093152;28;20400;-75
2021/11/15 06:46:14;;;;;;;56.88;25.10;;;;;;;4.80;76.63;99647.00;5092750;28;20480;-74
2021/11/15 06:48:41;;;;;;;49.15;22.30;;;;;;;4.84;76.54;99654.50;5092476;28;20070;-74
2021/11/15 06:51:09;;;;;;;54.40;24.05;;;;;;;4.84;76.24;99643.63;5077940;28;20054;-74
2021/11/15 06:53:35;;;;;;;56.65;23.88;;;;;;;4.86;76.97;99646.09;5093164;28;20388;-74
2021/11/15 06:56:01;;;;;;;44.35;20.23;;;;;;;4.83;76.86;99655.56;5092869;28;20050;-74
2021/11/15 06:58:27;;;;;;;51.92;22.48;;;;;;;4.79;76.86;99657.06;5092798;28;20455;-74
2021/11/15 07:00:53;;;;;;;53.75;24.95;;;;;;;4.81;76.98;99646.81;5092598;28;20361;-74
2021/11/15 07:03:19;;;;;;;43.00;19.38;;;;;;;4.86;76.86;99651.53;5092986;28;20069;-73
2021/11/15 07:05:44;;;;;;;45.47;19.08;;;;;;;4.83;77.11;99657.44;5073721;28;20721;-74
2021/11/15 07:08:11;;;;;;;40.67;19.33;;;;;;;4.76;77.25;99662.97;5092070;28;20020;-73
2021/11/15 07:10:37;;;;;;;49.08;22.02;;;;;;;4.71;77.38;99660.09;5091441;28;20085;-74
2021/11/15 07:13:03;;;;;;;43.30;21.33;;;;;;;4.70;77.08;99664.69;5073678;28;20032;-73
2021/11/15 07:15:29;;;;;;;42.28;19.10;;;;;;;4.71;77.20;99660.91;5089276;28;20384;-73
2021/11/15 07:17:54;;;;;;;45.20;19.73;;;;;;;4.72;77.51;99662.56;5073369;28;20080;-74
2021/11/15 07:20:21;;;;;;;48.22;22.65;;;;;;;4.76;77.40;99663.78;5091818;28;20161;-73
2021/11/15 07:22:48;;;;;;;48.45;22.30;;;;;;;4.81;77.50;99663.09;5091616;28;20020;-73
2021/11/15 07:25:16;;;;;;;44.30;19.55;;;;;;;4.80;77.07;99658.72;5091277;28;20491;-73
2021/11/15 07:27:42;;;;;;;47.38;19.95;;;;;;;4.73;77.30;99658.78;5091234;28;21578;-73
2021/11/15 07:30:09;;;;;;;47.00;21.55;;;;;;;4.68;77.61;99663.25;5091957;28;20222;-73
2021/11/15 07:32:35;;;;;;;40.95;18.92;;;;;;;4.65;77.87;99661.00;5092161;28;20024;-73
2021/11/15 07:35:01;;;;;;;41.13;19.92;;;;;;;4.60;77.90;99662.50;5091878;28;20055;-73
2021/11/15 07:37:26;;;;;;;38.10;18.58;;;;;;;4.60;77.56;99661.69;5091501;28;20061;-73
2021/11/15 07:39:52;;;;;;;40.60;18.65;;;;;;;4.62;77.39;99656.88;5091668;28;20369;-72
2021/11/15 07:42:19;;;;;;;38.47;18.80;;;;;;;4.64;78.18;99662.91;5091675;28;20024;-72
2021/11/15 07:44:45;;;;;;;38.58;19.05;;;;;;;4.65;78.45;99656.41;5091804;28;20024;-73
2021/11/15 07:47:11;;;;;;;40.72;20.55;;;;;;;4.65;77.88;99658.28;5072585;28;20380;-73
2021/11/15 07:49:37;;;;;;;43.53;20.23;;;;;;;4.69;78.06;99652.16;5092725;28;20031;-73
2021/11/15 07:52:03;;;;;;;40.50;18.90;;;;;;;4.72;77.77;99653.59;5088879;28;20078;-73
2021/11/15 07:54:29;;;;;;;38.60;17.30;;;;;;;4.74;78.28;99662.34;5091516;28;20035;-73
2021/11/15 07:56:55;;;;;;;42.70;19.50;;;;;;;4.76;77.82;99666.50;5106944;28;20028;-73
2021/11/15 07:59:21;;;;;;;39.38;19.58;;;;;;;4.79;78.09;99661.66;5112628;28;20031;-74
2021/11/15 08:01:46;;;;;;;42.03;19.25;;;;;;;4.76;77.90;99663.78;5112637;28;20038;-73
2021/11/15 08:04:12;;;;;;;38.97;18.88;;;;;;;4.76;77.73;99669.22;5100033;28;20032;-71
2021/11/15 08:06:37;;;;;;;34.38;17.23;;;;;;;4.76;78.35;99668.41;5091831;28;20023;-71
2021/11/15 08:09:03;;;;;;;42.38;20.08;;;;;;;4.76;78.68;99662.97;5100731;28;20107;-72
2021/11/15 08:11:32;;;;;;;33.42;16.17;;;;;;;4.78;77.79;99666.28;5094597;28;20050;-70
2021/11/15 08:13:58;;;;;;;41.72;19.85;;;;;;;4.80;78.06;99655.16;5083682;28;20116;-69
2021/11/15 08:16:23;;;;;;;36.50;17.00;;;;;;;4.81;78.65;99663.09;5087716;28;20472;-68
2021/11/15 08:18:49;;;;;;;39.10;18.83;;;;;;;4.83;77.79;99671.88;5093182;28;20026;-68
2021/11/15 08:21:15;;;;;;;43.30;21.48;;;;;;;4.82;78.55;99659.34;5094689;28;20028;-68
2021/11/15 08:23:42;;;;;;;43.80;21.33;;;;;;;4.76;78.22;99661.06;5091410;28;20028;-69
2021/11/15 08:26:32;;;;;;;39.38;19.77;;;;;;;4.76;77.75;99655.63;5090519;28;20039;-68
2021/11/15 08:29:10;;;;;;;44.70;21.55;;;;;;;4.77;78.07;99668.16;5085174;28;20126;-68
2021/11/15 08:31:37;;;;;;;45.03;23.02;;;;;;;4.81;78.21;99659.53;5090924;28;20024;-70
2021/11/15 08:34:04;;;;;;;44.38;21.75;;;;;;;4.85;78.53;99658.03;5091182;28;20031;-69
2021/11/15 08:36:29;;;;;;;44.35;20.80;;;;;;;4.86;79.04;99662.41;5092620;28;20035;-69
2021/11/15 08:39:17;;;;;;;40.45;18.70;;;;;;;4.85;78.63;99668.91;5072464;28;20032;-68
2021/11/15 08:41:47;;;;;;;46.72;21.63;;;;;;;4.85;78.45;99666.19;5094195;28;20523;-68
2021/11/15 08:44:16;;;;;;;40.58;20.77;;;;;;;4.91;78.21;99659.84;5103928;28;20877;-67
2021/11/15 08:46:45;;;;;;;42.70;21.58;;;;;;;4.91;78.16;99668.00;5094697;28;20036;-66
2021/11/15 08:49:12;;;;;;;47.15;23.23;;;;;;;4.90;78.28;99658.19;5093505;28;20027;-67
2021/11/15 08:51:39;;;;;;;45.17;22.80;;;;;;;4.89;78.24;99662.78;5091084;28;20473;-67
2021/11/15 08:54:06;;;;;;;54.08;26.35;;;;;;;4.90;78.65;99669.06;5088771;28;20387;-68
2021/11/15 08:56:32;;;;;;;52.28;23.88;;;;;;;4.96;79.00;99670.00;5094140;28;20016;-68
2021/11/15 08:58:57;;;;;;;58.58;27.85;;;;;;;5.01;78.87;99675.59;5075108;28;20115;-67
2021/11/15 09:01:25;;;;;;;47.38;23.45;;;;;;;5.01;78.48;99681.88;5076568;28;20032;-67
2021/11/15 09:03:53;;;;;;;47.40;24.88;;;;;;;5.02;78.54;99680.81;5092473;28;20012;-68
2021/11/15 09:06:19;;;;;;;43.38;22.27;;;;;;;5.07;79.21;99672.81;5077800;28;20036;-67
2021/11/15 09:08:46;;;;;;;36.55;18.55;;;;;;;5.09;79.11;99678.00;5094000;28;20472;-67
2021/11/15 09:11:13;;;;;;;35.03;18.25;;;;;;;5.11;78.84;99675.88;5093759;28;20035;-67
2021/11/15 09:13:41;;;;;;;42.95;21.02;;;;;;;5.13;78.49;99671.06;5094432;28;20030;-68
2021/11/15 09:16:08;;;;;;;40.63;20.95;;;;;;;5.12;78.47;99672.09;5097446;28;20031;-69
2021/11/15 09:18:34;;;;;;;35.95;17.73;;;;;;;5.13;78.70;99675.66;5076429;28;20028;-68
2021/11/15 09:21:01;;;;;;;45.58;23.48;;;;;;;5.14;78.74;99677.31;5094718;28;20023;-69
2021/11/15 09:23:27;;;;;;;41.25;20.05;;;;;;;5.15;78.58;99671.66;5095214;28;20016;-68
2021/11/15 09:25:53;;;;;;;45.72;22.27;;;;;;;5.19;78.53;99674.72;5099525;28;20035;-70
2021/11/15 09:28:19;;;;;;;42.72;21.40;;;;;;;5.23;78.72;99670.50;5092634;28;20024;-70
2021/11/15 09:30:46;;;;;;;40.33;20.63;;;;;;;5.26;78.90;99675.47;5093358;28;20028;-69
2021/11/15 09:33:12;;;;;;;47.63;23.65;;;;;;;5.25;78.64;99676.53;5093870;28;20028;-70
2021/11/15 09:35:42;;;;;;;50.58;24.00;;;;;;;5.26;78.53;99669.22;5094626;28;20607;-70
2021/11/15 09:38:08;;;;;;;49.83;24.30;;;;;;;5.30;79.02;99673.94;5093828;28;20488;-70
2021/11/15 09:40:33;;;;;;;41.78;22.08;;;;;;;5.35;78.47;99674.09;5093849;28;20054;-70
2021/11/15 09:42:59;;;;;;;42.58;21.70;;;;;;;5.36;78.28;99678.47;5092626;28;20020;-70
2021/11/15 09:45:26;;;;;;;43.45;20.98;;;;;;;5.41;78.65;99668.78;5092423;28;20027;-69
2021/11/15 09:47:55;;;;;;;40.38;19.73;;;;;;;5.39;78.08;99670.91;5094639;28;20024;-70
2021/11/15 09:50:21;;;;;;;37.17;19.70;;;;;;;5.35;77.52;99674.09;5092624;28;20544;-68
2021/11/15 09:52:48;;;;;;;39.63;19.10;;;;;;;5.28;78.04;99670.63;5092654;28;20488;-70
2021/11/15 09:55:15;;;;;;;38.08;19.15;;;;;;;5.25;78.18;99668.38;5092996;28;20052;-67
2021/11/15 09:57:44;;;;;;;38.97;18.42;;;;;;;5.24;78.14;99672.16;5093278;28;20024;-67
2021/11/15 10:00:13;;;;;;;34.78;16.92;;;;;;;5.21;77.74;99676.16;5074995;28;20043;-67
2021/11/15 10:02:39;;;;;;;40.70;18.30;;;;;;;5.19;77.88;99667.41;5093154;28;20024;-68
2021/11/15 10:05:08;;;;;;;37.45;18.80;;;;;;;5.19;77.66;99664.69;5093337;28;20034;-69
2021/11/15 10:07:42;;;;;;;32.10;17.00;;;;;;;5.20;78.16;99669.06;5114278;28;20008;-69
2021/11/15 10:10:25;;;;;;;39.05;19.27;;;;;;;5.20;77.72;99674.50;5095620;28;20036;-68
2021/11/15 10:13:10;;;;;;;34.33;17.20;;;;;;;5.21;78.00;99665.28;5093073;28;20476;-68
2021/11/15 10:16:03;;;;;;;31.85;16.27;;;;;;;5.26;77.71;99655.63;5091606;28;20035;-69
2021/11/15 10:18:57;;;;;;;43.35;21.70;;;;;;;5.29;78.02;99655.16;5088145;28;20519;-69
2021/11/15 10:21:55;;;;;;;40.30;19.92;;;;;;;5.33;77.48;99664.47;5092878;28;20024;-67
2021/11/15 10:24:36;;;;;;;40.33;20.20;;;;;;;5.36;77.96;99650.41;5035819;28;20444;-66
2021/11/15 10:27:08;;;;;;;40.92;20.17;;;;;;;5.34;77.80;99655.25;5092880;28;20049;-68
2021/11/15 10:29:45;;;;;;;40.85;19.23;;;;;;;5.34;77.56;99647.94;5092700;28;20090;-68
2021/11/15 10:32:11;;;;;;;43.13;20.05;;;;;;;5.38;77.78;99648.28;5091449;28;20089;-68
2021/11/15 10:34:42;;;;;;;42.78;22.80;;;;;;;5.43;77.84;99639.44;5098294;28;20032;-68
2021/11/15 10:37:18;;;;;;;43.47;22.02;;;;;;;5.49;77.79;99641.25;5092478;28;20074;-66
2021/11/15 10:39:57;;;;;;;48.88;23.83;;;;;;;5.54;77.61;99638.63;5091348;28;20030;-66
2021/11/15 10:42:29;;;;;;;47.22;24.25;;;;;;;5.64;77.71;99649.78;5092266;28;20488;-67
2021/11/15 10:45:01;;;;;;;43.05;21.70;;;;;;;5.71;77.14;99655.09;5091946;28;20055;-67
2021/11/15 10:47:31;;;;;;;40.38;19.45;;;;;;;5.78;77.50;99646.84;5074380;28;20024;-66
2021/11/15 10:50:29;;;;;;;43.00;21.85;;;;;;;5.82;77.28;99656.19;5092098;28;20614;-66
2021/11/15 10:53:04;;;;;;;44.25;21.70;;;;;;;5.86;76.83;99659.28;5097257;28;20066;-66
2021/11/15 10:55:40;;;;;;;48.10;24.40;;;;;;;5.88;76.78;99663.44;5092023;28;20024;-68
2021/11/15 10:58:16;;;;;;;44.17;21.25;;;;;;;5.91;76.85;99659.41;5082569;28;20036;-67
2021/11/15 11:00:51;;;;;;;48.45;22.90;;;;;;;5.94;76.58;99664.38;5088462;28;20036;-66
2021/11/15 11:03:21;;;;;;;47.30;24.33;;;;;;;6.01;76.69;99661.56;5090037;28;20032;-67
2021/11/15 11:05:49;;;;;;;50.30;23.33;;;;;;;6.02;76.54;99666.78;5090980;28;20028;-67
2021/11/15 11:08:19;;;;;;;56.13;28.40;;;;;;;6.00;75.91;99663.47;5089990;28;20031;-67
2021/11/15 11:10:53;;;;;;;43.97;22.88;;;;;;;6.01;76.06;99661.56;5090137;28;20039;-66
2021/11/15 11:13:21;;;;;;;50.40;26.63;;;;;;;6.02;76.33;99655.03;5089203;28;20066;-65
2021/11/15 11:15:49;;;;;;;56.70;27.58;;;;;;;6.05;76.49;99654.56;5091396;28;20031;-66
2021/11/15 11:26:33;;;;;;;44.38;21.73;;;;;;;6.21;75.95;99650.28;5091162;28;20409;-64
2021/11/15 11:29:13;;;;;;;58.58;28.70;;;;;;;6.24;75.92;99649.81;5090244;28;20115;-66
2021/11/15 11:31:42;;;;;;;72.00;32.63;;;;;;;6.22;75.96;99649.22;5089041;28;20036;-65